createdAt,value
2023-04-02T00:04:42.097Z,96437.31
2023-04-02T00:09:45.490Z,96440.81
2023-04-02T00:14:53.844Z,96460.53
2023-04-02T00:20:01.009Z,96470.03
2023-04-02T00:25:13.624Z,96478.72
2023-04-02T00:30:18.529Z,96496.66
2023-04-02T00:35:26.480Z,96525.19
2023-04-02T00:40:32.888Z,96528.25
2023-04-02T00:45:39.731Z,96529.41
2023-04-02T00:50:45.849Z,96534.69
2023-04-02T00:55:49.968Z,96545.03
2023-04-02T01:00:55.732Z,96564.56
2023-04-02T01:06:03.931Z,96565.97
2023-04-02T01:11:20.593Z,96582.41
2023-04-02T01:16:36.831Z,96596.69
2023-04-02T01:21:53.847Z,96603.16
2023-04-02T01:26:59.216Z,96615.56
2023-04-02T01:32:08.032Z,96630.88
2023-04-02T01:37:23.128Z,96632.44
2023-04-02T01:42:31.098Z,96652.63
2023-04-02T01:47:36.179Z,96667.34
2023-04-02T01:52:43.080Z,96673.22
2023-04-02T01:57:51.134Z,96685.44
2023-04-02T02:02:56.267Z,96690.34
2023-04-02T02:08:01.353Z,96697.78
2023-04-02T02:13:05.334Z,96711.91
2023-04-02T02:18:14.055Z,96720.00
2023-04-02T02:23:17.947Z,96738.00
2023-04-02T02:28:27.189Z,96742.06
2023-04-02T02:33:34.590Z,96752.03
2023-04-02T02:38:46.184Z,96763.34
2023-04-02T02:44:03.288Z,96777.28
2023-04-02T02:49:10.689Z,96784.53
2023-04-02T02:54:16.442Z,96805.78
2023-04-02T02:59:21.755Z,96809.50
2023-04-02T03:04:26.840Z,96820.44
2023-04-02T03:09:39.876Z,96831.03
2023-04-02T03:14:47.573Z,96837.91
2023-04-02T03:19:56.150Z,96852.19
2023-04-02T03:25:07.332Z,96861.50
2023-04-02T03:30:27.997Z,96866.53
2023-04-02T03:35:39.358Z,96875.63
2023-04-02T03:40:46.050Z,96886.28
2023-04-02T03:45:52.894Z,96903.47
2023-04-02T03:51:01.585Z,96905.38
2023-04-02T03:56:07.868Z,96909.63
2023-04-02T04:01:21.407Z,96929.50
2023-04-02T04:06:28.892Z,96928.34
2023-04-02T04:11:36.753Z,96948.91
2023-04-02T04:16:48.410Z,96958.59
2023-04-02T04:21:57.142Z,96972.63
2023-04-02T04:27:10.059Z,96978.50
2023-04-02T04:32:27.614Z,96989.06
2023-04-02T04:37:39.853Z,96995.72
2023-04-02T04:42:49.540Z,97011.97
2023-04-02T04:47:58.867Z,97033.22
2023-04-02T04:53:15.084Z,97041.13
2023-04-02T04:58:24.363Z,97050.75
2023-04-02T05:03:34.534Z,97055.91
2023-04-02T05:08:47.323Z,97070.75
2023-04-02T05:13:55.428Z,97078.22
2023-04-02T05:19:06.652Z,97089.59
2023-04-02T05:24:43.941Z,97099.84
2023-04-02T05:29:53.809Z,97098.91
2023-04-02T05:34:58.172Z,97114.59
2023-04-02T05:40:14.741Z,97125.91
2023-04-02T05:45:27.092Z,97137.19
2023-04-02T05:50:37.517Z,97148.66
2023-04-02T05:55:54.412Z,97158.72
2023-04-02T06:01:07.892Z,97171.69
2023-04-02T06:06:19.730Z,97167.66
2023-04-02T06:11:29.265Z,97179.88
2023-04-02T06:16:36.785Z,97195.66
2023-04-02T06:21:45.004Z,97199.75
2023-04-02T06:26:56.346Z,97220.03
2023-04-02T06:32:02.068Z,97224.47
2023-04-02T06:37:16.246Z,97230.41
2023-04-02T06:42:26.883Z,97241.19
2023-04-02T06:47:52.952Z,97252.69
2023-04-02T06:53:08.500Z,97262.72
2023-04-02T06:58:16.471Z,97283.53
2023-04-02T07:03:25.462Z,97294.50
2023-04-02T07:08:30.174Z,97305.56
2023-04-02T07:13:35.010Z,97323.97
2023-04-02T07:18:38.860Z,97325.69
2023-04-02T07:23:43.336Z,97336.56
2023-04-02T07:28:48.113Z,97335.28
2023-04-02T07:33:52.309Z,97351.63
2023-04-02T07:38:56.950Z,97356.53
2023-04-02T07:44:01.833Z,97367.00
2023-04-02T07:49:05.078Z,97376.22
2023-04-02T07:54:10.389Z,97379.75
2023-04-02T07:59:15.013Z,97396.84
2023-04-02T08:04:20.284Z,97404.50
2023-04-02T08:09:23.558Z,97420.53
2023-04-02T08:14:28.216Z,97431.13
2023-04-02T08:19:32.727Z,97436.25
2023-04-02T08:24:38.422Z,97449.66
2023-04-02T08:29:43.206Z,97457.97
2023-04-02T08:34:46.854Z,97468.28
2023-04-02T08:39:50.213Z,97484.25
2023-04-02T09:20:57.953Z,97532.47
2023-04-02T09:26:04.583Z,97545.03
2023-04-02T09:31:22.018Z,97557.88
2023-04-02T09:36:38.467Z,97568.34
2023-04-02T09:41:41.861Z,97580.28
2023-04-02T09:46:56.163Z,97589.59
2023-04-02T09:52:28.140Z,97606.75
2023-04-02T09:57:32.947Z,97614.59
2023-04-02T10:02:37.863Z,97613.69
2023-04-02T10:07:45.958Z,97620.88
2023-04-02T10:12:57.711Z,97639.41
2023-04-02T10:18:12.113Z,97645.44
2023-04-02T10:23:19.446Z,97653.47
2023-04-02T10:28:38.523Z,97660.63
2023-04-02T10:33:47.310Z,97669.72
2023-04-02T10:38:54.439Z,97672.72
2023-04-02T10:44:20.727Z,97674.28
2023-04-02T10:49:36.637Z,97679.84
2023-04-02T10:54:47.851Z,97685.56
2023-04-02T10:59:58.043Z,97690.91
2023-04-02T11:05:08.821Z,97704.81
2023-04-02T11:10:19.786Z,97714.88
2023-04-02T11:15:23.798Z,97725.53
2023-04-02T11:21:03.737Z,97736.69
2023-04-02T11:26:47.482Z,97752.75
2023-04-02T11:32:13.249Z,97750.25
2023-04-02T11:37:33.526Z,97757.78
2023-04-02T11:42:38.764Z,97766.72
2023-04-02T11:48:08.369Z,97772.81
2023-04-02T11:53:22.537Z,97780.97
2023-04-02T11:58:44.523Z,97778.06
2023-04-02T12:04:24.233Z,97795.22
2023-04-02T12:09:44.556Z,97794.34
2023-04-02T12:14:51.926Z,97812.25
2023-04-02T12:20:01.925Z,97812.19
2023-04-02T12:25:21.671Z,97805.75
2023-04-02T12:30:25.600Z,97823.38
2023-04-02T12:35:34.433Z,97826.28
2023-04-02T12:40:38.148Z,97831.31
2023-04-02T12:45:41.346Z,97838.28
2023-04-02T12:50:46.087Z,97842.81
2023-04-02T12:55:50.840Z,97842.56
2023-04-02T13:00:54.367Z,97840.00
2023-04-02T13:05:59.096Z,97851.75
2023-04-02T13:11:08.492Z,97852.78
2023-04-02T13:16:29.141Z,97855.81
2023-04-02T13:21:38.841Z,97867.72
2023-04-02T13:26:43.330Z,97862.66
2023-04-02T13:31:50.091Z,97861.78
2023-04-02T13:37:00.512Z,97866.41
2023-04-02T13:42:10.915Z,97879.69
2023-04-02T13:47:16.153Z,97881.78
2023-04-02T13:52:23.595Z,97891.03
2023-04-02T13:57:36.484Z,97904.38
2023-04-02T14:02:44.542Z,97902.81
2023-04-02T14:08:17.714Z,97904.81
2023-04-02T14:13:37.873Z,97916.66
2023-04-02T14:18:56.183Z,97922.88
2023-04-02T14:24:13.535Z,97926.44
2023-04-02T14:29:28.138Z,97937.19
2023-04-02T14:34:42.229Z,97937.38
2023-04-02T14:39:57.923Z,97941.13
2023-04-02T14:45:06.284Z,97943.59
2023-04-02T14:50:14.662Z,97958.94
2023-04-02T14:55:27.304Z,97952.38
2023-04-02T15:00:36.830Z,97959.06
2023-04-02T15:05:44.074Z,97965.78
2023-04-02T15:11:02.013Z,97973.00
2023-04-02T15:16:12.215Z,97956.13
2023-04-02T15:21:43.424Z,97972.00
2023-04-02T15:27:11.897Z,97972.34
2023-04-02T15:32:37.090Z,97970.66
2023-04-02T15:37:46.919Z,97971.63
2023-04-02T15:43:00.085Z,97977.72
2023-04-02T15:48:41.515Z,97982.69
2023-04-02T15:54:01.057Z,97999.09
2023-04-02T15:59:28.916Z,98003.63
2023-04-02T16:04:47.368Z,98002.56
2023-04-02T16:10:00.353Z,98011.81
2023-04-02T16:15:18.122Z,98028.03
2023-04-02T16:20:25.122Z,98026.81
2023-04-02T16:25:32.528Z,98031.09
2023-04-02T16:30:47.712Z,98044.00
2023-04-02T16:36:02.116Z,98047.13
2023-04-02T16:41:17.058Z,98053.78
2023-04-02T16:46:39.014Z,98059.13
2023-04-02T16:51:51.020Z,98058.75
2023-04-02T16:57:11.632Z,98063.94
2023-04-02T17:02:32.720Z,98060.44
2023-04-02T17:07:45.984Z,98068.63
2023-04-02T17:12:57.210Z,98067.91
2023-04-02T17:18:12.048Z,98083.09
2023-04-02T17:23:21.378Z,98088.66
2023-04-02T17:28:29.603Z,98084.59
2023-04-02T17:33:34.071Z,98084.22
2023-04-02T17:38:44.515Z,98101.94
2023-04-02T17:43:56.927Z,98106.59
2023-04-02T17:49:12.561Z,98107.00
2023-04-02T17:54:27.754Z,98111.44
2023-04-02T17:59:53.100Z,98125.84
2023-04-02T18:05:07.739Z,98123.13
2023-04-02T18:10:19.949Z,98123.22
2023-04-02T18:15:57.974Z,98137.16
2023-04-02T18:21:11.746Z,98146.47
2023-04-02T18:26:24.472Z,98145.28
2023-04-02T18:31:40.678Z,98153.63
2023-04-02T18:37:10.305Z,98154.72
2023-04-02T18:42:25.684Z,98168.94
2023-04-02T18:47:41.120Z,98175.00
2023-04-02T18:52:48.999Z,98174.63
2023-04-02T18:58:02.350Z,98189.63
2023-04-02T19:03:17.150Z,98196.31
2023-04-02T19:08:32.241Z,98199.66
2023-04-02T19:13:35.751Z,98201.94
2023-04-02T19:18:54.000Z,98208.22
2023-04-02T19:24:09.260Z,98202.72
2023-04-02T19:29:26.107Z,98220.00
2023-04-02T19:34:39.173Z,98220.69
2023-04-02T19:40:12.946Z,98231.19
2023-04-02T19:45:42.715Z,98238.81
2023-04-02T19:50:46.958Z,98249.97
2023-04-02T19:55:50.617Z,98249.16
2023-04-02T20:00:55.234Z,98253.44
2023-04-02T20:05:59.661Z,98258.59
2023-04-02T20:11:03.312Z,98257.81
2023-04-02T20:16:08.121Z,98263.06
2023-04-02T20:21:13.989Z,98260.59
2023-04-02T20:26:17.619Z,98267.16
2023-04-02T20:31:22.477Z,98267.88
2023-04-02T20:36:25.771Z,98273.53
2023-04-02T20:41:29.083Z,98289.66
2023-04-02T20:46:34.368Z,98291.88
2023-04-02T20:51:37.814Z,98297.97
2023-04-02T20:56:41.986Z,98304.03
2023-04-02T21:01:46.692Z,98316.28
2023-04-02T21:06:50.001Z,98310.25
2023-04-02T21:11:53.188Z,98313.59
2023-04-02T21:16:57.729Z,98317.25
2023-04-02T21:22:01.005Z,98320.69
2023-04-02T21:27:04.318Z,98314.56
2023-04-02T21:32:20.899Z,98327.88
2023-04-02T21:37:25.069Z,98323.59
2023-04-02T21:42:28.924Z,98328.84
2023-04-02T21:47:33.914Z,98339.78
2023-04-02T21:52:37.403Z,98340.16
2023-04-02T21:57:40.665Z,98336.53
2023-04-02T22:02:45.289Z,98338.47
2023-04-02T22:07:48.454Z,98343.13
2023-04-02T22:12:51.740Z,98351.16
2023-04-02T22:17:56.348Z,98349.81
2023-04-02T22:22:59.856Z,98357.38
2023-04-02T22:28:03.025Z,98358.78
2023-04-02T22:33:07.617Z,98367.28
2023-04-02T22:38:11.172Z,98374.16
2023-04-02T22:43:14.289Z,98363.72
2023-04-02T22:48:18.820Z,98378.53
2023-04-02T22:53:22.795Z,98391.75
2023-04-02T22:58:26.599Z,98385.06
2023-04-02T23:03:32.305Z,98396.41
2023-04-02T23:08:35.525Z,98400.34
2023-04-02T23:13:40.143Z,98411.53
2023-04-02T23:18:47.281Z,98410.53
2023-04-02T23:23:51.486Z,98411.44
2023-04-02T23:28:54.807Z,98410.63
2023-04-02T23:33:59.733Z,98404.34
2023-04-02T23:39:05.015Z,98407.44
2023-04-02T23:44:09.091Z,98413.91
2023-04-02T23:49:13.643Z,98411.72
2023-04-02T23:54:16.935Z,98420.06
2023-04-02T23:59:20.200Z,98416.69
